« Back
NWS Peachtree City, Ga » Text Product » CSG Terminal Aerodrome Forecast


Printer-friendly Version
Current Version              Previous Versions:   1  2  3  4  5  6  7  8  9  

Terminal Aerodrome Forecast

214
FTUS42 KFFC 190900 AAA
TAFCSG
TAF AMD
KCSG 190907Z 1909/2006 08003KT P6SM BKN200
      TEMPO 1911/1914 6SM BR BKN010
     FM191400 08005KT P6SM BKN025
     FM191600 09007KT P6SM SCT040
     FM191800 11008KT P6SM BKN050
     FM200100 08005KT P6SM SCT060=



USA.gov is the U.S. government's official web portal to all federal, state and local government web resources and services.